Time;durP1;ratioP1;P1;durP2;ratioP2;P2;SDS_P1;SDS_P2;PMS_P1;PMS_P2;Temp;Humidity;BMP_temperature;BMP_pressure;BME280_temperature;BME280_humidity;BME280_pressure;Samples;Min_cycle;Max_cycle;Signal;HPM_P1;HPM_P2
2021/12/31 00:01:37;;;;;;;1.50;0.30;;;19.70;62.90;;;;;;4995169;28;20408;-65
2021/12/31 00:04:03;;;;;;;1.30;0.47;;;19.70;63.00;;;;;;4993898;28;20026;-65
2021/12/31 00:06:29;;;;;;;1.13;0.40;;;19.70;63.00;;;;;;4993902;28;20085;-65
2021/12/31 00:08:54;;;;;;;1.63;0.30;;;19.60;62.90;;;;;;4977886;28;20035;-65
2021/12/31 00:11:20;;;;;;;0.80;0.55;;;19.70;63.00;;;;;;4994803;28;20046;-65
2021/12/31 00:13:45;;;;;;;0.65;0.30;;;19.70;63.00;;;;;;4995193;28;20033;-65
2021/12/31 00:16:11;;;;;;;0.90;0.30;;;19.60;63.00;;;;;;4994630;28;20476;-65
2021/12/31 00:18:37;;;;;;;0.73;0.50;;;19.60;63.00;;;;;;4995010;28;20089;-65
2021/12/31 00:21:03;;;;;;;0.22;0.22;;;19.60;63.00;;;;;;4994954;28;20026;-65
2021/12/31 00:23:29;;;;;;;0.30;0.30;;;19.60;63.10;;;;;;4993657;28;20081;-65
2021/12/31 00:25:55;;;;;;;2.00;0.40;;;19.60;63.10;;;;;;4994814;28;20026;-65
2021/12/31 00:28:20;;;;;;;0.95;0.28;;;19.60;63.10;;;;;;4977437;28;20026;-65
2021/12/31 00:30:52;;;;;;;0.43;0.30;;;19.60;63.10;;;;;;4994294;28;20440;-65
2021/12/31 00:33:18;;;;;;;1.20;0.70;;;19.60;63.20;;;;;;4979910;28;20552;-65
2021/12/31 00:35:43;;;;;;;0.60;0.40;;;19.60;63.20;;;;;;5013026;28;20097;-65
2021/12/31 00:38:09;;;;;;;0.50;0.30;;;19.60;63.20;;;;;;5013033;28;20057;-65
2021/12/31 00:40:35;;;;;;;1.35;0.32;;;19.60;63.30;;;;;;5014134;28;20022;-65
2021/12/31 00:43:00;;;;;;;0.70;0.38;;;19.60;63.30;;;;;;5014150;28;20472;-65
2021/12/31 00:45:26;;;;;;;0.85;0.40;;;19.60;63.30;;;;;;5013690;28;20705;-65
2021/12/31 00:47:52;;;;;;;1.55;0.65;;;19.60;63.30;;;;;;5012977;28;20030;-65
2021/12/31 00:50:17;;;;;;;0.80;0.50;;;19.60;63.40;;;;;;5013878;28;20026;-64
2021/12/31 00:52:43;;;;;;;0.77;0.22;;;19.60;63.40;;;;;;5012860;28;20041;-64
2021/12/31 00:55:10;;;;;;;0.38;0.38;;;19.60;63.40;;;;;;5013546;28;20041;-64
2021/12/31 00:57:36;;;;;;;0.55;0.40;;;19.60;63.40;;;;;;5012729;28;20496;-64
2021/12/31 01:00:02;;;;;;;0.75;0.30;;;19.60;63.40;;;;;;5013518;28;20032;-65
2021/12/31 01:02:29;;;;;;;0.30;0.30;;;19.50;63.40;;;;;;5013439;28;20018;-65
2021/12/31 01:04:55;;;;;;;0.68;0.43;;;19.50;63.40;;;;;;5013816;28;20491;-64
2021/12/31 01:07:20;;;;;;;1.60;0.40;;;19.50;63.50;;;;;;5012317;28;20057;-64
2021/12/31 01:09:46;;;;;;;1.27;0.40;;;19.50;63.50;;;;;;5012644;28;20545;-64
2021/12/31 01:12:13;;;;;;;0.60;0.32;;;19.50;63.50;;;;;;5013711;28;20036;-64
2021/12/31 01:14:54;;;;;;;0.50;0.35;;;19.50;63.50;;;;;;5012028;28;20014;-65
2021/12/31 01:17:36;;;;;;;1.13;0.50;;;19.50;63.50;;;;;;4998216;28;20022;-65
2021/12/31 01:20:02;;;;;;;0.45;0.32;;;19.50;63.60;;;;;;5013480;28;20026;-64
2021/12/31 01:22:31;;;;;;;0.93;0.40;;;19.50;63.60;;;;;;5013291;28;20060;-65
2021/12/31 01:24:57;;;;;;;0.80;0.50;;;19.50;63.60;;;;;;5013478;28;20097;-65
2021/12/31 01:27:22;;;;;;;2.72;0.40;;;19.50;63.60;;;;;;5012234;28;20491;-64
2021/12/31 01:29:48;;;;;;;0.40;0.30;;;19.50;63.60;;;;;;5012830;28;20057;-65
2021/12/31 01:32:14;;;;;;;0.28;0.28;;;19.50;63.60;;;;;;5013189;28;20498;-65
2021/12/31 01:34:39;;;;;;;0.43;0.30;;;19.50;63.70;;;;;;5012895;28;20511;-65
2021/12/31 01:37:05;;;;;;;0.45;0.30;;;19.50;63.70;;;;;;4995667;28;20072;-65
2021/12/31 01:39:31;;;;;;;0.50;0.38;;;19.50;63.70;;;;;;5011788;28;20037;-64
2021/12/31 01:41:58;;;;;;;0.63;0.30;;;19.50;63.70;;;;;;5013055;28;20045;-65
2021/12/31 01:44:34;;;;;;;1.30;0.30;;;19.50;63.70;;;;;;5011412;28;20017;-65
2021/12/31 01:47:04;;;;;;;0.73;0.43;;;19.50;63.80;;;;;;4994850;28;20030;-65
2021/12/31 01:49:36;;;;;;;0.47;0.40;;;19.50;63.80;;;;;;4992042;28;20089;-64
2021/12/31 01:52:03;;;;;;;1.27;0.30;;;19.50;63.80;;;;;;4992085;28;20033;-64
2021/12/31 01:54:32;;;;;;;0.30;0.20;;;19.50;63.80;;;;;;4975699;28;20026;-65
2021/12/31 01:56:58;;;;;;;1.00;0.38;;;19.50;63.90;;;;;;4992906;28;20022;-65
2021/12/31 01:59:23;;;;;;;0.70;0.40;;;19.50;63.90;;;;;;4975833;28;20042;-65
2021/12/31 02:01:49;;;;;;;0.30;0.30;;;19.50;63.90;;;;;;4975827;28;20085;-65
2021/12/31 02:04:15;;;;;;;1.20;0.30;;;19.50;63.90;;;;;;4991832;28;20481;-65
2021/12/31 02:06:40;;;;;;;1.00;0.40;;;19.40;63.90;;;;;;4992969;28;20018;-65
2021/12/31 02:09:06;;;;;;;1.08;0.47;;;19.40;63.90;;;;;;4992873;28;20034;-65
2021/12/31 02:11:32;;;;;;;0.93;0.40;;;19.50;63.90;;;;;;4991426;28;20448;-64
2021/12/31 02:13:58;;;;;;;0.93;0.30;;;19.50;64.00;;;;;;4993027;28;20408;-64
2021/12/31 02:16:23;;;;;;;0.60;0.30;;;19.40;63.90;;;;;;4991751;28;20018;-64
2021/12/31 02:18:49;;;;;;;0.75;0.38;;;19.40;63.90;;;;;;4991786;28;20027;-64
2021/12/31 02:21:16;;;;;;;1.33;0.32;;;19.40;64.00;;;;;;4992722;28;20072;-64
2021/12/31 02:23:46;;;;;;;0.22;0.22;;;19.40;64.00;;;;;;4991609;28;20030;-64
2021/12/31 02:26:12;;;;;;;0.40;0.38;;;19.40;64.00;;;;;;4975641;28;20456;-64
2021/12/31 02:28:38;;;;;;;0.45;0.22;;;19.40;64.00;;;;;;4991575;28;20034;-65
2021/12/31 02:31:03;;;;;;;0.45;0.40;;;19.40;64.00;;;;;;4992600;28;20030;-65
2021/12/31 02:33:32;;;;;;;0.30;0.30;;;19.40;64.00;;;;;;4996141;28;20030;-65
2021/12/31 02:35:59;;;;;;;1.02;0.50;;;19.40;64.00;;;;;;5011264;28;20084;-65
2021/12/31 02:38:25;;;;;;;1.40;0.50;;;19.40;64.10;;;;;;5012195;28;20026;-65
2021/12/31 02:40:50;;;;;;;0.40;0.40;;;19.40;64.10;;;;;;5010938;28;20026;-65
2021/12/31 02:43:16;;;;;;;0.80;0.50;;;19.40;64.00;;;;;;5012275;28;20026;-65
2021/12/31 02:45:42;;;;;;;0.90;0.35;;;19.40;64.10;;;;;;5012028;28;20033;-65
2021/12/31 02:48:08;;;;;;;1.38;0.35;;;19.40;64.10;;;;;;5012502;28;20030;-65
2021/12/31 02:50:39;;;;;;;0.75;0.50;;;19.40;64.20;;;;;;5012092;28;20026;-65
2021/12/31 02:53:13;;;;;;;0.70;0.30;;;19.40;64.10;;;;;;5011191;28;20029;-65
2021/12/31 02:55:40;;;;;;;0.55;0.40;;;19.40;64.10;;;;;;5010693;28;20096;-65
2021/12/31 02:58:06;;;;;;;1.25;0.50;;;19.40;64.20;;;;;;5011000;28;20591;-65
2021/12/31 03:00:35;;;;;;;0.63;0.30;;;19.40;64.20;;;;;;5010775;28;20100;-65
2021/12/31 03:03:01;;;;;;;0.80;0.40;;;19.40;64.20;;;;;;4995095;28;20025;-65
2021/12/31 03:05:27;;;;;;;0.52;0.30;;;19.40;64.20;;;;;;4994728;28;20518;-65
2021/12/31 03:07:52;;;;;;;0.80;0.30;;;19.40;64.20;;;;;;4994660;28;20034;-65
2021/12/31 03:10:18;;;;;;;0.32;0.32;;;19.40;64.20;;;;;;4994215;28;20049;-65
2021/12/31 03:12:43;;;;;;;0.30;0.30;;;19.40;64.20;;;;;;5010861;28;20084;-65
2021/12/31 03:15:10;;;;;;;0.30;0.30;;;19.40;64.30;;;;;;5012085;28;20094;-65
2021/12/31 03:17:35;;;;;;;0.75;0.43;;;19.40;64.30;;;;;;5010939;28;20033;-65
2021/12/31 03:20:12;;;;;;;0.68;0.38;;;19.40;65.40;;;;;;5011995;28;20105;-65
2021/12/31 03:22:38;;;;;;;0.98;0.38;;;19.40;64.30;;;;;;5012009;28;20057;-65
2021/12/31 03:25:04;;;;;;;0.82;0.32;;;19.40;64.40;;;;;;5010426;28;20026;-65
2021/12/31 03:27:30;;;;;;;0.70;0.40;;;19.40;64.40;;;;;;5012003;28;20026;-65
2021/12/31 03:29:56;;;;;;;0.52;0.35;;;19.40;64.40;;;;;;5010708;28;20049;-65
2021/12/31 03:32:21;;;;;;;0.30;0.30;;;19.40;64.50;;;;;;5012240;28;20400;-65
2021/12/31 03:34:47;;;;;;;0.40;0.40;;;19.40;64.40;;;;;;5015096;28;20022;-65
2021/12/31 03:37:12;;;;;;;0.68;0.40;;;19.40;64.40;;;;;;5014266;28;20077;-65
2021/12/31 03:39:38;;;;;;;0.40;0.30;;;19.30;64.40;;;;;;5014842;28;20025;-65
2021/12/31 03:42:04;;;;;;;0.50;0.32;;;19.30;64.50;;;;;;5015482;28;20499;-65
2021/12/31 03:44:29;;;;;;;0.68;0.30;;;19.40;64.50;;;;;;5015131;28;20072;-65
2021/12/31 03:46:55;;;;;;;0.20;0.20;;;19.30;64.50;;;;;;4998895;28;20465;-65
2021/12/31 03:49:20;;;;;;;0.65;0.30;;;19.30;64.50;;;;;;4994360;28;20029;-65
2021/12/31 03:51:46;;;;;;;3.40;0.43;;;19.40;64.60;;;;;;4995320;28;20109;-65
2021/12/31 03:54:12;;;;;;;0.65;0.35;;;19.30;64.50;;;;;;4995127;28;20485;-64
2021/12/31 03:56:37;;;;;;;1.00;0.52;;;19.30;64.60;;;;;;4995385;28;20504;-65
2021/12/31 03:59:03;;;;;;;0.73;0.43;;;19.30;64.50;;;;;;4995279;28;20023;-65
2021/12/31 04:01:29;;;;;;;0.82;0.65;;;19.30;64.60;;;;;;4995369;28;20112;-65
2021/12/31 04:03:55;;;;;;;1.10;0.55;;;19.30;64.60;;;;;;4994024;28;20078;-65
2021/12/31 04:06:23;;;;;;;0.70;0.40;;;19.30;64.60;;;;;;4995333;28;20031;-65
2021/12/31 04:08:50;;;;;;;0.20;0.20;;;19.30;64.60;;;;;;4993573;28;20094;-65
2021/12/31 04:11:16;;;;;;;0.38;0.30;;;19.30;64.60;;;;;;4995015;28;20124;-65
2021/12/31 04:13:41;;;;;;;1.10;0.30;;;19.30;64.70;;;;;;4993770;28;20090;-65
2021/12/31 04:16:07;;;;;;;1.60;0.50;;;19.30;64.70;;;;;;4994066;28;20025;-65
2021/12/31 04:18:33;;;;;;;0.20;0.20;;;19.30;64.70;;;;;;4993492;28;20049;-65
2021/12/31 04:21:00;;;;;;;0.70;0.30;;;19.30;64.70;;;;;;4994938;28;20026;-65
2021/12/31 04:23:31;;;;;;;0.70;0.40;;;19.30;64.70;;;;;;4994660;28;20057;-65
2021/12/31 04:25:57;;;;;;;0.73;0.22;;;19.30;65.70;;;;;;4995002;28;20034;-64
2021/12/31 04:28:23;;;;;;;0.38;0.30;;;19.30;64.70;;;;;;4993663;28;20453;-65
2021/12/31 04:30:49;;;;;;;0.60;0.40;;;19.30;64.70;;;;;;4993784;28;20034;-65
2021/12/31 04:33:14;;;;;;;0.70;0.20;;;19.30;64.70;;;;;;4996159;28;20411;-65
2021/12/31 04:35:40;;;;;;;0.75;0.40;;;19.30;64.70;;;;;;5014070;28;20472;-65
2021/12/31 04:38:06;;;;;;;0.85;0.38;;;19.30;64.70;;;;;;5013919;28;20064;-65
2021/12/31 04:40:31;;;;;;;1.65;0.50;;;19.30;64.70;;;;;;5012968;28;20112;-65
2021/12/31 04:42:57;;;;;;;0.63;0.30;;;19.30;64.80;;;;;;5014164;28;20072;-65
2021/12/31 04:45:24;;;;;;;0.50;0.30;;;19.30;64.80;;;;;;5012857;28;20026;-65
2021/12/31 04:47:50;;;;;;;0.28;0.22;;;19.30;64.90;;;;;;5012748;28;20022;-65
2021/12/31 04:50:16;;;;;;;0.25;0.25;;;19.30;64.90;;;;;;5013730;28;20396;-65
2021/12/31 04:52:41;;;;;;;0.60;0.30;;;19.30;64.90;;;;;;5012317;28;20123;-65
2021/12/31 04:55:08;;;;;;;0.50;0.40;;;19.30;64.90;;;;;;5013849;28;20022;-65
2021/12/31 04:57:33;;;;;;;0.82;0.50;;;19.30;64.90;;;;;;4996456;28;20198;-65
2021/12/31 04:59:59;;;;;;;1.33;0.40;;;19.30;64.90;;;;;;5013670;28;20033;-65
2021/12/31 05:02:24;;;;;;;0.65;0.30;;;19.30;64.90;;;;;;5013842;28;20057;-65
2021/12/31 05:04:50;;;;;;;0.70;0.32;;;19.30;64.90;;;;;;5013645;28;20092;-65
2021/12/31 05:07:16;;;;;;;0.30;0.25;;;19.30;64.90;;;;;;5012262;28;20022;-65
2021/12/31 05:09:41;;;;;;;0.82;0.30;;;19.30;64.90;;;;;;5013214;28;20108;-65
2021/12/31 05:12:12;;;;;;;0.30;0.30;;;19.30;64.90;;;;;;5013597;28;20018;-65
2021/12/31 05:14:37;;;;;;;0.52;0.35;;;19.30;64.90;;;;;;5013492;28;20022;-65
2021/12/31 05:17:03;;;;;;;0.60;0.35;;;19.30;65.00;;;;;;5013441;28;20018;-65
2021/12/31 05:19:29;;;;;;;0.50;0.30;;;19.30;65.20;;;;;;5013541;28;20473;-65
2021/12/31 05:21:54;;;;;;;0.22;0.22;;;19.30;65.00;;;;;;5012963;28;20022;-65
2021/12/31 05:24:20;;;;;;;0.85;0.50;;;19.30;65.10;;;;;;5013223;28;20056;-65
2021/12/31 05:26:46;;;;;;;0.60;0.35;;;19.30;65.00;;;;;;5013347;28;20026;-64
2021/12/31 05:29:11;;;;;;;0.35;0.35;;;19.30;65.10;;;;;;5013250;28;20041;-64
2021/12/31 05:31:37;;;;;;;1.23;0.25;;;19.30;65.00;;;;;;5013176;28;20412;-65
2021/12/31 05:34:03;;;;;;;0.28;0.28;;;19.30;65.10;;;;;;5013098;28;20165;-65
2021/12/31 05:36:28;;;;;;;0.35;0.20;;;19.30;65.10;;;;;;5012828;28;20018;-64
2021/12/31 05:38:54;;;;;;;0.47;0.22;;;19.30;65.10;;;;;;5013063;28;20080;-65
2021/12/31 05:41:20;;;;;;;0.90;0.40;;;19.30;65.10;;;;;;5008383;28;20613;-65
2021/12/31 05:43:45;;;;;;;0.65;0.30;;;19.30;65.10;;;;;;4999266;28;20034;-65
2021/12/31 05:46:11;;;;;;;0.65;0.40;;;19.30;65.10;;;;;;5001128;28;20035;-65
2021/12/31 05:48:36;;;;;;;0.88;0.47;;;19.30;65.20;;;;;;4999689;28;20031;-65
2021/12/31 05:51:03;;;;;;;0.57;0.40;;;19.30;65.20;;;;;;5000929;28;20026;-65
2021/12/31 05:53:28;;;;;;;0.30;0.30;;;19.30;65.20;;;;;;5001679;28;20112;-65
2021/12/31 05:55:54;;;;;;;1.27;0.30;;;19.20;65.10;;;;;;4996306;28;20101;-65
2021/12/31 05:58:20;;;;;;;0.60;0.35;;;19.30;65.20;;;;;;4998748;28;20045;-65
2021/12/31 06:00:45;;;;;;;1.40;0.38;;;19.30;65.20;;;;;;5003516;28;20105;-65
2021/12/31 06:03:11;;;;;;;0.85;0.50;;;19.30;65.20;;;;;;5005291;28;20411;-65
2021/12/31 06:05:37;;;;;;;0.30;0.30;;;19.30;65.20;;;;;;4995279;28;20027;-65
2021/12/31 06:08:02;;;;;;;0.55;0.25;;;19.30;65.20;;;;;;5008799;28;20026;-65
2021/12/31 06:10:28;;;;;;;0.40;0.40;;;19.30;65.20;;;;;;4998066;28;20042;-65
2021/12/31 06:12:57;;;;;;;0.50;0.40;;;19.30;65.20;;;;;;5001282;28;20445;-65
2021/12/31 06:15:23;;;;;;;1.80;0.50;;;19.30;65.30;;;;;;4989848;28;20022;-65
2021/12/31 06:17:49;;;;;;;0.25;0.20;;;19.30;65.30;;;;;;4994606;28;20025;-65
2021/12/31 06:20:15;;;;;;;0.40;0.32;;;19.30;65.30;;;;;;5007533;28;20018;-65
2021/12/31 06:22:41;;;;;;;0.20;0.20;;;19.30;65.30;;;;;;4999592;28;20026;-65
2021/12/31 06:25:07;;;;;;;0.30;0.30;;;19.30;65.30;;;;;;4999522;28;20030;-65
2021/12/31 06:27:32;;;;;;;0.70;0.35;;;19.30;65.30;;;;;;5004512;28;20484;-65
2021/12/31 06:29:58;;;;;;;0.57;0.40;;;19.30;65.30;;;;;;4995348;28;20018;-65
2021/12/31 06:32:24;;;;;;;1.17;0.65;;;19.30;65.20;;;;;;4989471;28;20496;-65
2021/12/31 06:34:49;;;;;;;0.82;0.50;;;19.30;65.20;;;;;;4999833;28;20026;-65
2021/12/31 06:37:15;;;;;;;1.38;0.63;;;19.30;65.20;;;;;;4996280;28;20473;-64
2021/12/31 06:39:42;;;;;;;2.47;0.55;;;19.30;65.20;;;;;;4994621;28;20023;-65
2021/12/31 06:42:08;;;;;;;0.50;0.50;;;19.30;65.30;;;;;;5008260;28;20109;-64
2021/12/31 06:44:35;;;;;;;0.55;0.40;;;19.30;65.30;;;;;;4998833;28;20022;-65
2021/12/31 06:47:02;;;;;;;0.47;0.40;;;19.40;65.20;;;;;;5004495;28;20022;-69
2021/12/31 06:49:29;;;;;;;1.58;0.47;;;19.40;65.20;;;;;;4997204;28;20056;-66
2021/12/31 06:51:54;;;;;;;0.73;0.30;;;19.40;65.20;;;;;;5007189;28;20415;-66
2021/12/31 06:54:20;;;;;;;0.57;0.30;;;19.40;65.20;;;;;;4996012;28;20018;-66
2021/12/31 06:56:45;;;;;;;0.85;0.40;;;19.40;65.20;;;;;;5011181;28;20524;-66
2021/12/31 06:59:11;;;;;;;0.75;0.50;;;19.40;65.20;;;;;;5012254;28;20022;-66
2021/12/31 07:01:37;;;;;;;0.93;0.40;;;19.40;65.20;;;;;;5005194;28;20038;-66
2021/12/31 07:04:02;;;;;;;0.63;0.40;;;19.40;65.30;;;;;;5002037;28;20022;-66
2021/12/31 07:06:28;;;;;;;0.63;0.50;;;19.40;65.20;;;;;;5010552;28;20026;-66
2021/12/31 07:08:53;;;;;;;0.52;0.52;;;19.40;65.20;;;;;;4998257;28;20022;-66
2021/12/31 07:11:22;;;;;;;0.80;0.50;;;19.40;65.20;;;;;;5011433;28;20489;-66
2021/12/31 07:13:48;;;;;;;0.82;0.55;;;19.40;65.20;;;;;;5002732;28;20488;-66
2021/12/31 07:16:13;;;;;;;0.50;0.40;;;19.40;65.20;;;;;;5002752;28;20102;-67
2021/12/31 07:18:39;;;;;;;4.63;1.00;;;19.40;65.20;;;;;;4996098;28;20027;-66
2021/12/31 07:21:05;;;;;;;5.68;1.80;;;19.50;65.30;;;;;;5012682;28;20539;-66
2021/12/31 07:23:30;;;;;;;4.70;1.42;;;19.50;65.30;;;;;;5015744;28;20487;-66
2021/12/31 07:25:56;;;;;;;9.93;1.95;;;19.50;65.30;;;;;;4998540;28;20113;-66
2021/12/31 07:28:21;;;;;;;4.32;1.55;;;19.50;65.40;;;;;;5014289;28;20476;-66
2021/12/31 07:30:48;;;;;;;6.03;1.73;;;19.50;65.40;;;;;;5013910;28;20037;-66
2021/12/31 07:33:18;;;;;;;7.65;1.92;;;19.50;65.40;;;;;;4997794;28;20018;-66
2021/12/31 07:35:45;;;;;;;2.80;1.45;;;19.60;65.50;;;;;;5014174;28;20042;-66
2021/12/31 07:38:19;;;;;;;4.43;1.52;;;19.60;65.40;;;;;;4997779;28;20511;-66
2021/12/31 07:40:44;;;;;;;4.15;1.33;;;19.60;65.50;;;;;;5015255;28;20077;-66
2021/12/31 07:43:12;;;;;;;2.63;1.23;;;19.60;65.40;;;;;;4985255;28;20030;-66
2021/12/31 07:45:38;;;;;;;4.35;1.40;;;19.60;65.40;;;;;;5009986;28;20452;-66
2021/12/31 07:48:04;;;;;;;4.78;1.52;;;19.60;65.40;;;;;;4978230;28;20046;-66
2021/12/31 07:50:30;;;;;;;3.60;1.38;;;19.60;65.40;;;;;;5004066;28;20068;-66
2021/12/31 07:52:56;;;;;;;3.97;1.50;;;19.60;65.40;;;;;;5015086;28;20105;-66
2021/12/31 07:55:21;;;;;;;2.58;1.15;;;19.60;65.50;;;;;;5013948;28;20549;-66
2021/12/31 07:57:47;;;;;;;3.05;1.20;;;19.60;65.50;;;;;;5014968;28;20033;-66
2021/12/31 08:00:13;;;;;;;2.28;1.08;;;19.60;65.50;;;;;;4995354;28;20031;-66
2021/12/31 08:02:39;;;;;;;2.63;1.10;;;19.60;65.40;;;;;;4995345;28;20027;-66
2021/12/31 08:05:05;;;;;;;2.90;1.13;;;19.70;65.50;;;;;;4977846;28;20032;-66
2021/12/31 08:07:30;;;;;;;3.00;1.25;;;19.60;65.40;;;;;;4995431;28;20138;-66
2021/12/31 08:09:56;;;;;;;2.50;1.23;;;19.70;65.50;;;;;;4977556;28;20054;-66
2021/12/31 08:12:22;;;;;;;3.03;1.27;;;19.70;65.50;;;;;;4993813;28;20113;-66
2021/12/31 08:14:47;;;;;;;3.25;1.00;;;19.70;65.60;;;;;;4995085;28;20089;-66
2021/12/31 08:17:13;;;;;;;4.47;1.30;;;19.70;65.60;;;;;;5012405;28;20030;-66
2021/12/31 08:19:38;;;;;;;3.63;1.55;;;19.70;65.50;;;;;;5014233;28;20473;-66
2021/12/31 08:22:04;;;;;;;3.53;1.30;;;19.70;65.50;;;;;;5013376;28;20574;-66
2021/12/31 08:24:30;;;;;;;2.53;1.10;;;19.70;66.60;;;;;;5014413;28;20022;-66
2021/12/31 08:26:55;;;;;;;4.07;1.27;;;19.70;65.50;;;;;;5014369;28;20037;-66
2021/12/31 08:29:21;;;;;;;1.83;1.15;;;19.70;65.60;;;;;;5012731;28;20034;-66
2021/12/31 08:31:47;;;;;;;3.83;1.27;;;19.70;65.50;;;;;;5013224;28;20542;-66
2021/12/31 08:34:12;;;;;;;2.33;1.20;;;19.70;65.50;;;;;;5003482;28;20073;-66
2021/12/31 08:36:38;;;;;;;2.38;1.17;;;19.70;65.50;;;;;;4993500;28;20097;-66
2021/12/31 08:39:07;;;;;;;1.42;0.95;;;19.70;65.60;;;;;;4977157;28;20023;-66
2021/12/31 08:41:34;;;;;;;2.65;1.23;;;19.80;65.60;;;;;;4994691;28;20109;-66
2021/12/31 08:43:59;;;;;;;1.92;0.98;;;19.70;65.60;;;;;;4976961;28;20034;-66
2021/12/31 08:46:25;;;;;;;1.10;0.90;;;19.80;65.70;;;;;;4977133;28;20397;-66
2021/12/31 08:48:51;;;;;;;2.95;1.10;;;19.80;65.60;;;;;;4994461;28;20041;-66
2021/12/31 08:51:16;;;;;;;2.05;0.77;;;19.80;65.60;;;;;;5012337;28;20041;-66
2021/12/31 08:53:42;;;;;;;2.00;1.40;;;19.80;65.60;;;;;;5012702;28;20084;-66
2021/12/31 08:56:07;;;;;;;2.40;1.05;;;19.80;65.60;;;;;;5013826;28;20034;-66
2021/12/31 08:58:33;;;;;;;2.38;1.00;;;19.80;65.60;;;;;;5012386;28;20484;-66
2021/12/31 09:00:59;;;;;;;1.85;0.90;;;19.80;65.70;;;;;;5012515;28;20407;-66
2021/12/31 09:03:24;;;;;;;2.50;1.25;;;19.80;65.70;;;;;;5012685;28;20030;-66
2021/12/31 09:05:50;;;;;;;3.00;1.10;;;19.80;65.70;;;;;;5013740;28;20037;-66
2021/12/31 09:08:16;;;;;;;1.48;1.15;;;19.80;65.60;;;;;;5013684;28;20030;-66
2021/12/31 09:10:42;;;;;;;1.60;0.80;;;19.90;65.70;;;;;;5013268;28;20061;-66
2021/12/31 09:13:08;;;;;;;2.17;0.88;;;19.80;65.60;;;;;;5012011;28;20113;-66
2021/12/31 09:15:33;;;;;;;2.45;1.08;;;19.90;65.70;;;;;;5012483;28;20033;-66
2021/12/31 09:17:59;;;;;;;2.67;0.95;;;19.90;65.70;;;;;;4995950;28;20487;-66
2021/12/31 09:20:26;;;;;;;2.00;1.23;;;19.90;65.70;;;;;;5013618;28;20018;-66
2021/12/31 09:22:52;;;;;;;1.02;0.68;;;19.90;65.70;;;;;;5012392;28;20035;-66
2021/12/31 09:25:18;;;;;;;1.27;0.90;;;19.90;65.70;;;;;;5012060;28;20118;-66
2021/12/31 09:27:44;;;;;;;1.77;0.90;;;19.90;65.70;;;;;;5013095;28;20025;-66
2021/12/31 09:30:12;;;;;;;2.55;1.02;;;19.90;65.70;;;;;;5011461;28;20040;-66
2021/12/31 09:32:38;;;;;;;1.50;0.90;;;19.90;65.70;;;;;;5013345;28;20049;-66
2021/12/31 09:35:04;;;;;;;1.67;0.65;;;19.90;65.70;;;;;;4995662;28;20057;-66
2021/12/31 09:37:29;;;;;;;1.00;0.70;;;19.90;65.70;;;;;;5013211;28;20144;-66
2021/12/31 09:39:55;;;;;;;2.15;1.02;;;19.90;65.70;;;;;;5013044;28;20551;-66
2021/12/31 09:42:21;;;;;;;2.45;0.95;;;19.90;65.70;;;;;;5012753;28;20018;-66
2021/12/31 09:44:47;;;;;;;1.15;0.82;;;19.90;65.70;;;;;;5012387;28;20044;-66
2021/12/31 09:47:13;;;;;;;1.10;0.80;;;19.90;65.70;;;;;;5013015;28;20480;-66
2021/12/31 09:49:39;;;;;;;2.58;1.10;;;19.90;65.70;;;;;;5006729;28;20026;-66
2021/12/31 09:52:05;;;;;;;1.20;0.93;;;19.90;65.70;;;;;;4993309;28;20038;-66
2021/12/31 09:54:31;;;;;;;1.00;0.90;;;19.90;65.70;;;;;;4992003;28;20030;-66
2021/12/31 09:56:57;;;;;;;1.10;0.80;;;20.00;65.70;;;;;;4993058;28;20019;-66
2021/12/31 09:59:24;;;;;;;1.30;1.00;;;19.90;65.70;;;;;;4993168;28;20493;-66
2021/12/31 10:01:53;;;;;;;1.77;0.70;;;19.90;65.60;;;;;;4993107;28;20433;-66
2021/12/31 10:04:19;;;;;;;1.33;0.88;;;20.00;65.70;;;;;;4991833;28;20026;-66
2021/12/31 10:07:07;;;;;;;1.05;0.90;;;20.00;65.80;;;;;;4993310;28;20033;-66
2021/12/31 10:09:38;;;;;;;1.77;1.00;;;20.00;65.60;;;;;;4991709;28;20054;-66
2021/12/31 10:12:04;;;;;;;0.82;0.52;;;19.90;65.60;;;;;;4991516;28;20019;-66
2021/12/31 10:14:37;;;;;;;1.27;0.77;;;20.00;65.70;;;;;;4993004;28;20023;-66
2021/12/31 10:17:02;;;;;;;;;;;20.00;65.70;;;;;;4993427;28;20093;-66
2021/12/31 10:19:28;;;;;;;1.60;0.77;;;20.00;65.70;;;;;;4993483;28;20376;-66
2021/12/31 10:21:57;;;;;;;1.08;0.70;;;19.90;65.90;;;;;;4992846;28;20109;-66
2021/12/31 10:24:22;;;;;;;1.67;0.90;;;19.90;65.80;;;;;;4991679;28;20519;-66
2021/12/31 10:26:49;;;;;;;1.35;0.90;;;19.90;65.70;;;;;;4992628;28;20026;-66
2021/12/31 10:29:14;;;;;;;0.70;0.70;;;19.90;65.80;;;;;;4991562;28;20551;-66
2021/12/31 10:31:44;;;;;;;1.30;0.98;;;19.90;65.70;;;;;;4992853;28;20113;-66
2021/12/31 10:34:31;;;;;;;1.45;0.80;;;20.00;65.70;;;;;;5001649;28;20508;-66
2021/12/31 10:37:12;;;;;;;0.73;0.70;;;20.00;65.60;;;;;;5012620;28;20084;-66
2021/12/31 10:39:39;;;;;;;1.48;0.77;;;20.00;65.70;;;;;;5011051;28;20046;-66
2021/12/31 10:42:06;;;;;;;0.80;0.70;;;20.00;65.80;;;;;;5014012;28;20029;-66
2021/12/31 10:44:44;;;;;;;1.15;0.80;;;20.00;65.70;;;;;;5015074;28;20493;-66
2021/12/31 10:47:12;;;;;;;1.02;0.70;;;20.00;65.60;;;;;;5016343;28;20087;-66
2021/12/31 10:50:00;;;;;;;0.77;0.57;;;20.00;65.70;;;;;;5016188;28;20476;-66
2021/12/31 10:52:34;;;;;;;0.93;0.70;;;20.00;65.60;;;;;;5016222;28;20108;-66
2021/12/31 10:55:14;;;;;;;1.48;0.68;;;20.00;65.70;;;;;;5015905;28;20510;-66
2021/12/31 10:57:40;;;;;;;0.70;0.50;;;20.00;65.70;;;;;;5015038;28;20029;-66
2021/12/31 11:00:06;;;;;;;1.52;0.90;;;20.00;65.70;;;;;;5016322;28;20034;-66
2021/12/31 11:02:33;;;;;;;0.65;0.60;;;20.00;65.60;;;;;;5014569;28;20056;-66
2021/12/31 11:04:59;;;;;;;0.70;0.70;;;20.00;65.70;;;;;;5014905;28;20037;-66
2021/12/31 11:07:28;;;;;;;1.00;0.70;;;20.00;65.60;;;;;;5015991;28;20030;-66
2021/12/31 11:09:58;;;;;;;0.93;0.65;;;20.00;65.60;;;;;;5015257;28;20050;-66
2021/12/31 11:12:27;;;;;;;0.60;0.60;;;20.00;65.60;;;;;;5014771;28;20464;-66
2021/12/31 11:14:53;;;;;;;1.02;0.70;;;20.00;65.60;;;;;;5015862;28;20553;-66
2021/12/31 11:17:18;;;;;;;1.25;0.70;;;20.10;65.60;;;;;;5014446;28;20112;-66
2021/12/31 11:19:45;;;;;;;0.90;0.70;;;20.10;65.60;;;;;;5015622;28;20104;-66
2021/12/31 11:22:14;;;;;;;2.22;1.13;;;20.00;65.60;;;;;;4998597;28;20022;-66
2021/12/31 11:24:40;;;;;;;0.70;0.68;;;20.10;65.60;;;;;;5014206;28;20108;-66
2021/12/31 11:27:31;;;;;;;0.90;0.70;;;20.00;65.60;;;;;;5014449;28;20152;-66
2021/12/31 11:30:00;;;;;;;0.60;0.55;;;20.10;65.50;;;;;;5015538;28;20025;-66
2021/12/31 11:33:04;;;;;;;0.95;0.77;;;20.10;65.60;;;;;;5015537;28;20018;-66
2021/12/31 11:35:36;;;;;;;1.45;0.60;;;20.10;65.50;;;;;;4938972;29;20494;-66
2021/12/31 11:38:06;;;;;;;0.70;0.70;;;20.00;65.60;;;;;;4954600;29;20035;-66
2021/12/31 11:40:36;;;;;;;1.08;0.70;;;20.00;65.50;;;;;;4938778;29;20027;-66
2021/12/31 11:43:20;;;;;;;0.60;0.60;;;20.00;65.60;;;;;;4939047;29;20082;-67
2021/12/31 11:46:15;;;;;;;0.80;0.55;;;20.10;65.50;;;;;;4954780;29;20485;-67
2021/12/31 11:48:46;;;;;;;1.05;0.55;;;20.10;65.50;;;;;;4954641;29;20553;-67
2021/12/31 11:51:19;;;;;;;0.68;0.68;;;20.00;65.60;;;;;;4971802;28;20058;-66
2021/12/31 11:53:59;;;;;;;1.27;0.63;;;20.00;65.50;;;;;;4940802;28;20526;-66
2021/12/31 11:59:14;;;;;;;0.93;0.70;;;20.10;65.60;;;;;;4973866;28;20038;-66
2021/12/31 12:01:47;;;;;;;0.90;0.80;;;20.10;65.60;;;;;;4973726;28;20058;-66
2021/12/31 12:04:30;;;;;;;1.83;0.77;;;20.10;65.50;;;;;;4957960;28;20038;-66
2021/12/31 12:06:56;;;;;;;0.77;0.50;;;20.10;65.50;;;;;;4957617;28;20035;-66
2021/12/31 12:09:22;;;;;;;0.95;0.70;;;20.10;65.60;;;;;;4972852;28;20030;-66
2021/12/31 12:12:16;;;;;;;1.50;0.65;;;20.10;65.50;;;;;;4995217;28;20033;-66
2021/12/31 12:14:46;;;;;;;1.13;0.70;;;20.10;65.40;;;;;;4995008;28;20030;-66
2021/12/31 12:17:16;;;;;;;0.73;0.60;;;20.10;65.50;;;;;;4995131;28;20077;-66
2021/12/31 12:19:50;;;;;;;1.52;0.90;;;20.10;65.50;;;;;;4993626;28;20082;-66
2021/12/31 12:22:25;;;;;;;0.93;0.80;;;20.10;65.50;;;;;;4994884;28;20026;-66
2021/12/31 12:24:52;;;;;;;1.00;0.80;;;20.10;65.40;;;;;;4995027;28;20106;-66
2021/12/31 12:27:19;;;;;;;0.77;0.73;;;20.10;66.50;;;;;;4993766;28;20030;-66
2021/12/31 12:29:45;;;;;;;0.93;0.85;;;20.10;65.50;;;;;;4994914;28;20026;-66
2021/12/31 12:32:12;;;;;;;1.15;0.70;;;20.10;65.50;;;;;;4993870;28;20073;-66
2021/12/31 12:34:38;;;;;;;1.02;0.90;;;20.10;65.50;;;;;;5005965;28;20060;-66
2021/12/31 12:37:03;;;;;;;1.88;1.08;;;20.10;65.40;;;;;;5014015;28;20022;-66
2021/12/31 12:39:30;;;;;;;0.70;0.70;;;20.10;65.40;;;;;;5013068;28;20026;-66
2021/12/31 12:41:56;;;;;;;1.05;0.68;;;20.10;65.30;;;;;;5013063;28;20022;-66
2021/12/31 12:44:21;;;;;;;0.82;0.80;;;20.10;65.40;;;;;;4996718;28;20080;-66
2021/12/31 12:46:57;;;;;;;1.75;0.93;;;20.10;65.30;;;;;;5014182;28;20029;-66
2021/12/31 12:49:24;;;;;;;0.88;0.73;;;20.10;65.30;;;;;;5011219;28;20033;-66
2021/12/31 12:51:49;;;;;;;1.40;0.60;;;20.10;65.30;;;;;;4992857;28;20510;-66